Time;durP1;ratioP1;P1;durP2;ratioP2;P2;SDS_P1;SDS_P2;PMS_P1;PMS_P2;Temp;Humidity;BMP_temperature;BMP_pressure;BME280_temperature;BME280_humidity;BME280_pressure;Samples;Min_cycle;Max_cycle;Signal;HPM_P1;HPM_P2
2023/07/31 00:00:58;;;;;;;14.00;13.20;;;;;;;;;;5031923;28;20491;-46
2023/07/31 00:03:26;;;;;;;14.23;13.13;;;;;;;;;;5031669;28;20547;-42
2023/07/31 00:05:53;;;;;;;14.60;13.60;;;;;;;;;;5031258;28;20522;-42
2023/07/31 00:08:21;;;;;;;14.20;12.83;;;;;;;;;;5012053;28;20480;-43
2023/07/31 00:10:52;;;;;;;14.30;13.27;;;;;;;;;;5012163;28;20461;-42
2023/07/31 00:13:19;;;;;;;14.30;13.47;;;;;;;;;;5012205;28;20508;-43
2023/07/31 00:15:47;;;;;;;14.90;13.80;;;;;;;;;;5011613;28;20461;-43
2023/07/31 00:18:14;;;;;;;15.20;13.90;;;;;;;;;;5012120;28;20441;-41
2023/07/31 00:20:42;;;;;;;13.93;13.10;;;;;;;;;;5011791;28;20464;-43
2023/07/31 00:23:09;;;;;;;16.20;14.77;;;;;;;;;;5011982;28;20571;-41
2023/07/31 00:25:37;;;;;;;15.50;14.20;;;;;;;;;;5011103;28;20465;-44
2023/07/31 00:28:06;;;;;;;15.50;14.23;;;;;;;;;;5011708;28;20440;-44
2023/07/31 00:30:33;;;;;;;15.40;14.17;;;;;;;;;;5011661;28;20439;-42
2023/07/31 00:33:01;;;;;;;14.83;13.63;;;;;;;;;;5011697;28;20492;-42
2023/07/31 00:35:28;;;;;;;14.10;13.40;;;;;;;;;;5010995;28;21010;-42
2023/07/31 00:37:57;;;;;;;14.53;13.67;;;;;;;;;;5011923;28;20874;-41
2023/07/31 00:40:24;;;;;;;14.30;13.10;;;;;;;;;;5011841;28;20439;-42
2023/07/31 00:42:52;;;;;;;14.00;13.20;;;;;;;;;;5011347;28;20607;-42
2023/07/31 00:45:22;;;;;;;13.57;12.60;;;;;;;;;;5011271;28;20493;-42
2023/07/31 00:47:50;;;;;;;13.13;12.43;;;;;;;;;;5011602;28;20451;-43
2023/07/31 00:50:18;;;;;;;13.33;12.60;;;;;;;;;;5011521;28;20429;-41
2023/07/31 00:52:45;;;;;;;14.30;12.67;;;;;;;;;;5011575;28;20433;-42
2023/07/31 00:55:13;;;;;;;12.97;11.90;;;;;;;;;;5011174;28;20457;-44
2023/07/31 00:57:42;;;;;;;12.93;12.20;;;;;;;;;;5011688;28;20784;-42
2023/07/31 01:00:10;;;;;;;13.67;12.67;;;;;;;;;;5011579;28;20433;-43
2023/07/31 01:02:39;;;;;;;13.23;12.47;;;;;;;;;;5012177;28;20476;-43
2023/07/31 01:05:07;;;;;;;12.50;11.70;;;;;;;;;;5012921;28;20469;-44
2023/07/31 01:07:38;;;;;;;13.40;12.67;;;;;;;;;;5031610;28;20460;-43
2023/07/31 01:10:09;;;;;;;12.80;12.20;;;;;;;;;;5031765;28;20752;-43
2023/07/31 01:12:38;;;;;;;12.67;12.00;;;;;;;;;;5031483;28;20444;-41
2023/07/31 01:15:06;;;;;;;12.17;11.53;;;;;;;;;;5031005;28;21046;-41
2023/07/31 01:17:34;;;;;;;13.60;12.70;;;;;;;;;;5031371;28;20437;-41
2023/07/31 01:20:04;;;;;;;12.20;11.60;;;;;;;;;;5031634;28;20433;-43
2023/07/31 01:22:39;;;;;;;12.80;12.10;;;;;;;;;;5031518;28;20475;-41
2023/07/31 01:25:12;;;;;;;14.27;12.80;;;;;;;;;;5030447;28;20470;-43
2023/07/31 01:27:45;;;;;;;12.97;12.27;;;;;;;;;;5031412;28;20462;-42
2023/07/31 01:30:14;;;;;;;12.80;12.10;;;;;;;;;;5031234;28;20426;-42
2023/07/31 01:32:43;;;;;;;12.60;11.80;;;;;;;;;;5031447;28;20435;-41
2023/07/31 01:35:11;;;;;;;13.03;12.20;;;;;;;;;;5030824;28;20468;-43
2023/07/31 01:37:38;;;;;;;14.17;13.03;;;;;;;;;;5032641;28;20488;-44
2023/07/31 01:40:07;;;;;;;14.33;13.13;;;;;;;;;;5035223;28;20440;-41
2023/07/31 01:42:34;;;;;;;14.57;13.90;;;;;;;;;;5035006;28;20469;-41
2023/07/31 01:45:04;;;;;;;14.30;13.40;;;;;;;;;;5034479;28;20460;-42
2023/07/31 01:47:31;;;;;;;13.90;13.23;;;;;;;;;;5034834;28;20978;-43
2023/07/31 01:49:59;;;;;;;14.20;12.80;;;;;;;;;;5035088;28;20432;-43
2023/07/31 01:52:26;;;;;;;14.83;13.80;;;;;;;;;;5034624;28;20436;-41
2023/07/31 01:54:54;;;;;;;13.83;12.90;;;;;;;;;;5034424;28;20486;-42
2023/07/31 01:57:21;;;;;;;13.97;13.17;;;;;;;;;;5034791;28;20439;-42
2023/07/31 01:59:49;;;;;;;14.73;13.77;;;;;;;;;;5034898;28;20435;-41
2023/07/31 02:02:17;;;;;;;13.57;12.93;;;;;;;;;;5034351;28;20464;-41
2023/07/31 02:04:45;;;;;;;14.87;13.90;;;;;;;;;;5033907;28;20470;-41
2023/07/31 02:07:13;;;;;;;15.00;13.90;;;;;;;;;;5034772;28;20519;-44
2023/07/31 02:09:40;;;;;;;14.17;13.33;;;;;;;;;;5034476;28;21005;-44
2023/07/31 02:12:09;;;;;;;13.43;12.87;;;;;;;;;;5034350;28;21008;-41
2023/07/31 02:14:36;;;;;;;14.80;13.33;;;;;;;;;;5033885;28;20518;-43
2023/07/31 02:17:04;;;;;;;15.60;14.47;;;;;;;;;;5034254;28;20428;-42
2023/07/31 02:19:33;;;;;;;12.97;12.27;;;;;;;;;;5034521;28;20462;-41
2023/07/31 02:22:00;;;;;;;15.30;13.90;;;;;;;;;;5034439;28;20436;-41
2023/07/31 02:24:28;;;;;;;14.97;13.77;;;;;;;;;;5033551;28;20543;-42
2023/07/31 02:26:55;;;;;;;13.20;12.50;;;;;;;;;;5033797;28;21009;-45
2023/07/31 02:29:22;;;;;;;14.77;13.70;;;;;;;;;;5034113;28;20440;-42
2023/07/31 02:31:50;;;;;;;14.07;13.17;;;;;;;;;;5034270;28;20519;-43
2023/07/31 02:34:18;;;;;;;14.23;13.40;;;;;;;;;;5033734;28;20476;-41
2023/07/31 02:36:47;;;;;;;13.93;13.13;;;;;;;;;;5033923;28;20956;-41
2023/07/31 02:39:14;;;;;;;15.17;13.90;;;;;;;;;;5034220;28;20498;-41
2023/07/31 02:41:42;;;;;;;15.10;13.83;;;;;;;;;;5034101;28;20428;-42
2023/07/31 02:44:10;;;;;;;14.77;13.87;;;;;;;;;;5033414;28;20470;-42
2023/07/31 02:46:37;;;;;;;14.80;13.70;;;;;;;;;;5034023;28;20486;-41
2023/07/31 02:49:05;;;;;;;14.17;13.43;;;;;;;;;;5032810;28;20443;-42
2023/07/31 02:51:32;;;;;;;14.13;13.27;;;;;;;;;;5033942;28;20490;-42
2023/07/31 02:54:02;;;;;;;14.10;13.30;;;;;;;;;;5033420;28;20877;-43
2023/07/31 02:56:29;;;;;;;13.53;12.70;;;;;;;;;;5033800;28;20438;-46
2023/07/31 02:58:57;;;;;;;14.63;13.63;;;;;;;;;;5033806;28;20789;-42
2023/07/31 03:01:24;;;;;;;14.80;13.87;;;;;;;;;;5033633;28;20428;-43
2023/07/31 03:03:52;;;;;;;15.73;14.43;;;;;;;;;;5033145;28;22087;-42
2023/07/31 03:06:19;;;;;;;14.97;13.70;;;;;;;;;;5033364;28;20472;-42
2023/07/31 03:08:47;;;;;;;16.13;15.03;;;;;;;;;;5033668;28;20436;-41
2023/07/31 03:11:15;;;;;;;15.13;14.30;;;;;;;;;;5033482;28;20435;-43
2023/07/31 03:13:43;;;;;;;14.90;13.93;;;;;;;;;;5032982;28;20454;-41
2023/07/31 03:16:10;;;;;;;15.70;14.80;;;;;;;;;;5033479;28;20627;-44
2023/07/31 03:18:38;;;;;;;16.43;15.23;;;;;;;;;;5033297;28;20435;-42
2023/07/31 03:21:06;;;;;;;16.47;15.00;;;;;;;;;;5033292;28;20432;-42
2023/07/31 03:23:33;;;;;;;15.50;14.30;;;;;;;;;;5032689;28;20464;-42
2023/07/31 03:26:02;;;;;;;15.57;14.30;;;;;;;;;;5033003;28;20475;-41
2023/07/31 03:28:31;;;;;;;15.93;14.30;;;;;;;;;;5032922;28;20436;-42
2023/07/31 03:30:59;;;;;;;14.57;13.87;;;;;;;;;;5033109;28;20436;-41
2023/07/31 03:33:27;;;;;;;15.83;14.93;;;;;;;;;;5033092;28;20440;-43
2023/07/31 03:35:54;;;;;;;17.20;15.90;;;;;;;;;;5032280;28;20464;-42
2023/07/31 03:38:22;;;;;;;16.80;15.30;;;;;;;;;;5033025;28;20443;-47
2023/07/31 03:40:49;;;;;;;17.03;15.70;;;;;;;;;;5032729;28;20428;-43
2023/07/31 03:43:17;;;;;;;17.47;16.13;;;;;;;;;;5032632;28;20802;-42
2023/07/31 03:45:47;;;;;;;17.40;16.10;;;;;;;;;;5032039;28;20543;-41
2023/07/31 03:48:15;;;;;;;16.23;15.00;;;;;;;;;;5032674;28;20416;-44
2023/07/31 03:50:42;;;;;;;16.77;15.67;;;;;;;;;;5032582;28;20992;-41
2023/07/31 03:53:10;;;;;;;16.80;15.50;;;;;;;;;;5032649;28;20523;-41
2023/07/31 03:55:37;;;;;;;18.10;16.60;;;;;;;;;;5031954;28;21040;-41
2023/07/31 03:58:05;;;;;;;20.90;17.47;;;;;;;;;;5032364;28;20439;-43
2023/07/31 04:00:32;;;;;;;17.87;16.67;;;;;;;;;;5032351;28;20471;-44
2023/07/31 04:03:01;;;;;;;17.30;16.20;;;;;;;;;;5032346;28;20436;-43
2023/07/31 04:05:30;;;;;;;19.03;17.63;;;;;;;;;;5031788;28;20910;-42
2023/07/31 04:07:58;;;;;;;19.50;17.80;;;;;;;;;;5032176;28;20482;-42
2023/07/31 04:10:25;;;;;;;19.17;17.50;;;;;;;;;;5032278;28;20530;-43
2023/07/31 04:12:53;;;;;;;17.67;16.37;;;;;;;;;;5032502;28;20817;-43
2023/07/31 04:15:20;;;;;;;18.07;16.50;;;;;;;;;;5031634;28;20555;-43
2023/07/31 04:17:48;;;;;;;17.70;16.40;;;;;;;;;;5032339;28;20443;-44
2023/07/31 04:20:17;;;;;;;17.70;16.43;;;;;;;;;;5031950;28;20475;-42
2023/07/31 04:22:44;;;;;;;19.57;18.23;;;;;;;;;;5032110;28;21011;-42
2023/07/31 04:25:12;;;;;;;19.03;17.80;;;;;;;;;;5031302;28;20476;-44
2023/07/31 04:27:39;;;;;;;17.83;16.53;;;;;;;;;;5031895;28;20910;-41
2023/07/31 04:30:08;;;;;;;17.40;16.10;;;;;;;;;;5032172;28;20519;-41
2023/07/31 04:32:36;;;;;;;17.43;16.17;;;;;;;;;;5032067;28;20474;-43
2023/07/31 04:35:04;;;;;;;17.30;16.17;;;;;;;;;;5031414;28;20471;-41
2023/07/31 04:37:32;;;;;;;18.30;17.10;;;;;;;;;;5031824;28;20436;-42
2023/07/31 04:40:00;;;;;;;16.53;15.33;;;;;;;;;;5031740;28;20927;-45
2023/07/31 04:42:28;;;;;;;15.40;14.50;;;;;;;;;;5031687;28;20439;-47
2023/07/31 04:44:55;;;;;;;16.00;14.57;;;;;;;;;;5030612;28;20566;-42
2023/07/31 04:47:23;;;;;;;15.13;14.33;;;;;;;;;;5031886;28;20420;-44
2023/07/31 04:49:50;;;;;;;15.70;14.67;;;;;;;;;;5032068;28;20558;-42
2023/07/31 04:52:18;;;;;;;14.87;14.23;;;;;;;;;;5031440;28;21003;-42
2023/07/31 04:54:47;;;;;;;16.33;15.23;;;;;;;;;;5031400;28;20468;-43
2023/07/31 04:57:14;;;;;;;15.67;14.73;;;;;;;;;;5031441;28;20526;-44
2023/07/31 04:59:42;;;;;;;17.73;16.50;;;;;;;;;;5031934;28;20775;-44
2023/07/31 05:02:09;;;;;;;17.63;16.63;;;;;;;;;;5031363;28;20428;-44
2023/07/31 05:04:37;;;;;;;18.30;17.13;;;;;;;;;;5023197;28;20473;-42
2023/07/31 05:07:05;;;;;;;18.00;17.07;;;;;;;;;;5028466;28;20507;-41
2023/07/31 05:09:32;;;;;;;18.63;17.47;;;;;;;;;;5031119;28;21136;-43
2023/07/31 05:12:01;;;;;;;18.23;17.03;;;;;;;;;;5031439;28;20421;-42
2023/07/31 05:14:29;;;;;;;17.50;16.50;;;;;;;;;;5034707;28;21056;-43
2023/07/31 05:16:56;;;;;;;19.07;17.57;;;;;;;;;;5035448;28;20522;-42
2023/07/31 05:19:24;;;;;;;18.30;17.30;;;;;;;;;;5035500;28;20439;-45
2023/07/31 05:21:51;;;;;;;18.97;17.73;;;;;;;;;;5035163;28;20510;-42
2023/07/31 05:24:19;;;;;;;19.13;17.50;;;;;;;;;;5034289;28;20494;-43
2023/07/31 05:26:47;;;;;;;18.57;17.10;;;;;;;;;;5035019;28;20483;-46
2023/07/31 05:29:16;;;;;;;19.70;18.50;;;;;;;;;;5034941;28;20439;-43
2023/07/31 05:31:44;;;;;;;19.67;18.47;;;;;;;;;;5034784;28;20431;-42
2023/07/31 05:34:12;;;;;;;18.30;17.33;;;;;;;;;;5034824;28;20460;-42
2023/07/31 05:36:39;;;;;;;20.13;18.70;;;;;;;;;;5035675;28;20438;-43
2023/07/31 05:39:08;;;;;;;21.37;19.97;;;;;;;;;;5035369;28;20412;-42
2023/07/31 05:41:36;;;;;;;20.43;18.97;;;;;;;;;;5034816;28;20868;-42
2023/07/31 05:44:04;;;;;;;19.80;18.50;;;;;;;;;;5034696;28;20459;-43
2023/07/31 05:46:32;;;;;;;20.50;19.10;;;;;;;;;;5035007;28;20467;-42
2023/07/31 05:49:00;;;;;;;21.37;19.87;;;;;;;;;;5034995;28;20818;-43
2023/07/31 05:51:28;;;;;;;18.70;17.40;;;;;;;;;;5034534;28;20427;-43
2023/07/31 05:53:56;;;;;;;19.30;17.90;;;;;;;;;;5033524;28;20468;-44
2023/07/31 05:56:23;;;;;;;20.27;18.87;;;;;;;;;;5034418;28;20992;-44
2023/07/31 05:58:51;;;;;;;19.07;18.07;;;;;;;;;;5034651;28;20436;-42
2023/07/31 06:01:18;;;;;;;19.73;18.43;;;;;;;;;;5034364;28;20984;-42
2023/07/31 06:03:47;;;;;;;19.97;18.57;;;;;;;;;;5034416;28;20444;-43
2023/07/31 06:06:15;;;;;;;18.27;17.27;;;;;;;;;;5034453;28;20557;-45
2023/07/31 06:08:43;;;;;;;18.20;17.10;;;;;;;;;;5033484;28;20434;-42
2023/07/31 06:11:10;;;;;;;17.90;16.83;;;;;;;;;;5034603;28;20764;-44
2023/07/31 06:13:38;;;;;;;17.00;16.10;;;;;;;;;;5034134;28;20431;-42
2023/07/31 06:16:07;;;;;;;17.10;16.20;;;;;;;;;;5034515;28;20432;-44
2023/07/31 06:18:35;;;;;;;17.40;16.33;;;;;;;;;;5034514;28;20433;-44
2023/07/31 06:21:03;;;;;;;15.57;14.83;;;;;;;;;;5034150;28;20527;-42
2023/07/31 06:23:31;;;;;;;15.90;15.13;;;;;;;;;;5030716;28;20471;-44
2023/07/31 06:25:59;;;;;;;17.13;15.80;;;;;;;;;;5026742;28;20536;-42
2023/07/31 06:28:28;;;;;;;15.77;15.03;;;;;;;;;;5030334;28;20463;-42
2023/07/31 06:30:55;;;;;;;16.63;15.60;;;;;;;;;;5031455;28;20786;-44
2023/07/31 06:33:23;;;;;;;15.97;15.27;;;;;;;;;;5031676;28;20921;-42
2023/07/31 06:35:51;;;;;;;16.90;15.90;;;;;;;;;;5031310;28;20468;-43
2023/07/31 06:38:25;;;;;;;16.40;15.50;;;;;;;;;;5018795;28;21003;-44
2023/07/31 06:40:52;;;;;;;16.63;15.50;;;;;;;;;;5031978;28;20523;-42
2023/07/31 06:43:20;;;;;;;15.10;14.30;;;;;;;;;;5029969;28;20467;-45
2023/07/31 06:45:51;;;;;;;15.50;14.60;;;;;;;;;;5029971;28;20495;-44
2023/07/31 06:48:19;;;;;;;14.03;13.43;;;;;;;;;;5025638;28;20422;-42
2023/07/31 06:50:47;;;;;;;14.60;14.00;;;;;;;;;;5032427;28;20432;-43
2023/07/31 06:53:14;;;;;;;14.03;13.40;;;;;;;;;;5031870;28;20442;-44
2023/07/31 06:55:43;;;;;;;14.50;13.40;;;;;;;;;;5030927;28;20838;-44
2023/07/31 06:58:11;;;;;;;12.97;12.37;;;;;;;;;;5030728;28;20438;-44
2023/07/31 07:00:38;;;;;;;12.60;12.20;;;;;;;;;;5032081;28;20603;-42
2023/07/31 07:03:06;;;;;;;11.80;11.40;;;;;;;;;;5030490;28;20514;-42
2023/07/31 07:05:33;;;;;;;11.67;11.10;;;;;;;;;;5030011;28;20906;-43
2023/07/31 07:08:01;;;;;;;13.17;12.57;;;;;;;;;;5030734;28;20526;-43
2023/07/31 07:10:28;;;;;;;12.73;12.20;;;;;;;;;;5031870;28;20436;-42
2023/07/31 07:12:57;;;;;;;11.83;11.23;;;;;;;;;;5031265;28;20456;-42
2023/07/31 07:15:25;;;;;;;11.13;10.70;;;;;;;;;;5030339;28;20459;-42
2023/07/31 07:17:52;;;;;;;11.23;10.83;;;;;;;;;;5031330;28;20448;-45
2023/07/31 07:20:20;;;;;;;11.70;11.10;;;;;;;;;;5032173;28;20445;-42
2023/07/31 07:22:47;;;;;;;11.37;10.87;;;;;;;;;;5031605;28;20427;-42
2023/07/31 07:25:15;;;;;;;11.90;11.40;;;;;;;;;;5030285;28;20464;-42
2023/07/31 07:27:42;;;;;;;10.83;10.43;;;;;;;;;;5030547;28;21200;-45
2023/07/31 07:30:11;;;;;;;11.83;11.20;;;;;;;;;;5031977;28;20471;-44
2023/07/31 07:32:39;;;;;;;11.40;10.90;;;;;;;;;;5031652;28;20806;-42
2023/07/31 07:35:07;;;;;;;11.97;11.07;;;;;;;;;;5030225;28;20529;-43
2023/07/31 07:37:35;;;;;;;12.43;11.57;;;;;;;;;;5031569;28;20515;-42
2023/07/31 07:40:02;;;;;;;11.70;11.10;;;;;;;;;;5032271;28;20456;-42
2023/07/31 07:42:30;;;;;;;12.90;12.20;;;;;;;;;;5031283;28;20447;-42
2023/07/31 07:44:58;;;;;;;11.70;11.10;;;;;;;;;;5030264;28;20487;-44
2023/07/31 07:47:26;;;;;;;11.23;10.63;;;;;;;;;;5031196;28;20554;-47
2023/07/31 07:49:55;;;;;;;12.70;12.10;;;;;;;;;;5030700;28;20507;-44
2023/07/31 07:52:23;;;;;;;10.70;10.40;;;;;;;;;;5029722;28;20814;-42
2023/07/31 07:54:51;;;;;;;11.40;10.83;;;;;;;;;;5029717;28;21075;-43
2023/07/31 07:57:18;;;;;;;11.60;11.10;;;;;;;;;;5030979;28;20625;-42
2023/07/31 07:59:46;;;;;;;12.30;11.57;;;;;;;;;;5030568;28;20535;-46
2023/07/31 08:02:13;;;;;;;11.57;11.00;;;;;;;;;;5030275;28;20435;-44
2023/07/31 08:04:42;;;;;;;11.43;10.93;;;;;;;;;;5029480;28;20514;-42
2023/07/31 08:07:11;;;;;;;10.80;10.40;;;;;;;;;;5030558;28;20838;-42
2023/07/31 08:09:39;;;;;;;11.80;11.20;;;;;;;;;;5030658;28;20456;-41
2023/07/31 08:12:07;;;;;;;12.87;12.07;;;;;;;;;;5030253;28;20902;-43
2023/07/31 08:14:35;;;;;;;13.73;12.50;;;;;;;;;;5028628;28;21016;-42
2023/07/31 08:17:04;;;;;;;24.17;21.27;;;;;;;;;;5030496;28;20490;-42
2023/07/31 08:19:31;;;;;;;44.63;23.47;;;;;;;;;;5030078;28;20428;-41
2023/07/31 08:24:25;;;;;;;28.03;25.73;;;;;;;;;;5065488;28;20574;-42
2023/07/31 08:26:52;;;;;;;23.67;22.00;;;;;;;;;;5053365;28;20431;-42
2023/07/31 08:29:20;;;;;;;24.13;22.50;;;;;;;;;;5057842;28;20944;-43
2023/07/31 08:31:48;;;;;;;20.97;19.63;;;;;;;;;;5055389;28;20436;-42
2023/07/31 08:34:15;;;;;;;23.07;21.70;;;;;;;;;;5049053;28;20468;-46
2023/07/31 08:36:43;;;;;;;21.93;20.83;;;;;;;;;;5052837;28;20948;-42
2023/07/31 08:39:11;;;;;;;21.63;20.63;;;;;;;;;;5047891;28;20485;-41
2023/07/31 08:41:40;;;;;;;20.93;20.13;;;;;;;;;;5053184;28;20419;-44
2023/07/31 08:44:08;;;;;;;21.47;20.53;;;;;;;;;;5048164;28;20479;-43
2023/07/31 08:46:36;;;;;;;19.90;19.00;;;;;;;;;;5054038;28;20449;-42
2023/07/31 08:49:05;;;;;;;19.07;18.27;;;;;;;;;;5054141;28;20439;-41
2023/07/31 08:51:34;;;;;;;19.07;18.30;;;;;;;;;;5055682;28;20996;-42
2023/07/31 08:54:03;;;;;;;19.43;18.63;;;;;;;;;;5047999;28;20462;-42
2023/07/31 08:56:32;;;;;;;18.90;18.20;;;;;;;;;;5052761;28;20427;-44
2023/07/31 08:59:03;;;;;;;18.83;17.93;;;;;;;;;;5050639;28;20434;-42
2023/07/31 09:01:31;;;;;;;18.93;18.13;;;;;;;;;;5053939;28;20952;-42
2023/07/31 09:04:01;;;;;;;18.73;17.93;;;;;;;;;;5041622;28;20557;-44
2023/07/31 09:06:31;;;;;;;19.40;18.40;;;;;;;;;;5057740;28;20411;-43
2023/07/31 09:08:58;;;;;;;19.60;18.67;;;;;;;;;;5048935;28;20431;-42
2023/07/31 09:11:27;;;;;;;21.00;20.00;;;;;;;;;;5053812;28;20455;-46
2023/07/31 09:13:57;;;;;;;21.97;20.77;;;;;;;;;;5049940;28;20459;-42
2023/07/31 09:16:31;;;;;;;21.40;20.30;;;;;;;;;;5052358;28;20442;-43
2023/07/31 09:19:01;;;;;;;22.50;20.70;;;;;;;;;;5048952;28;20430;-42
2023/07/31 09:21:29;;;;;;;21.87;20.67;;;;;;;;;;5053392;28;20422;-42
2023/07/31 09:23:58;;;;;;;22.13;21.20;;;;;;;;;;5051065;28;21262;-42
2023/07/31 09:26:32;;;;;;;23.03;21.87;;;;;;;;;;5054068;28;20876;-43
2023/07/31 09:29:00;;;;;;;23.20;22.00;;;;;;;;;;5054478;28;20434;-42
2023/07/31 09:31:39;;;;;;;22.47;21.43;;;;;;;;;;5054244;28;20514;-47
2023/07/31 09:34:06;;;;;;;21.50;20.60;;;;;;;;;;5034569;28;20471;-42
2023/07/31 09:36:40;;;;;;;21.80;20.90;;;;;;;;;;5047079;28;20427;-44
2023/07/31 09:39:09;;;;;;;22.03;20.83;;;;;;;;;;5040016;28;20780;-45
2023/07/31 09:41:37;;;;;;;22.80;21.60;;;;;;;;;;5041353;28;20438;-45
2023/07/31 09:44:05;;;;;;;22.77;21.60;;;;;;;;;;5034968;28;20466;-44
2023/07/31 09:46:32;;;;;;;23.00;21.60;;;;;;;;;;5038197;28;20515;-42
2023/07/31 09:49:09;;;;;;;22.60;21.40;;;;;;;;;;5034894;28;21031;-42
2023/07/31 09:51:38;;;;;;;21.50;20.40;;;;;;;;;;5038718;28;20423;-44
2023/07/31 09:54:12;;;;;;;22.60;21.47;;;;;;;;;;5037343;28;20837;-42
2023/07/31 09:56:44;;;;;;;22.30;21.30;;;;;;;;;;5041202;28;20937;-43
2023/07/31 09:59:15;;;;;;;23.60;22.47;;;;;;;;;;5041334;28;20510;-42
2023/07/31 10:01:43;;;;;;;22.90;21.67;;;;;;;;;;5040957;28;20518;-41
2023/07/31 10:04:12;;;;;;;22.50;21.60;;;;;;;;;;5031670;28;20462;-44
2023/07/31 10:06:41;;;;;;;21.67;20.80;;;;;;;;;;5043699;28;20423;-42
2023/07/31 10:09:10;;;;;;;22.70;21.70;;;;;;;;;;5039347;28;20454;-42
2023/07/31 10:11:39;;;;;;;23.20;22.00;;;;;;;;;;5045578;28;20467;-44
2023/07/31 10:14:08;;;;;;;23.03;21.83;;;;;;;;;;5034251;28;20479;-45
2023/07/31 10:16:35;;;;;;;22.03;21.13;;;;;;;;;;5031779;28;20430;-42
2023/07/31 10:19:03;;;;;;;24.10;22.27;;;;;;;;;;5033706;28;20463;-43
2023/07/31 10:21:34;;;;;;;20.73;19.93;;;;;;;;;;5041727;28;20456;-43
2023/07/31 10:24:03;;;;;;;20.40;19.57;;;;;;;;;;5032321;28;20459;-42
2023/07/31 10:26:31;;;;;;;21.07;20.23;;;;;;;;;;5033015;28;20463;-42
2023/07/31 10:28:59;;;;;;;21.87;20.97;;;;;;;;;;5039203;28;20561;-43
2023/07/31 10:31:27;;;;;;;21.33;20.53;;;;;;;;;;5040037;28;20416;-42
2023/07/31 10:33:55;;;;;;;22.37;21.47;;;;;;;;;;5034214;28;20567;-43
2023/07/31 10:36:23;;;;;;;21.90;20.90;;;;;;;;;;5040074;28;20860;-42
2023/07/31 10:38:51;;;;;;;22.87;21.93;;;;;;;;;;5035034;28;20434;-42
2023/07/31 10:41:19;;;;;;;22.00;20.97;;;;;;;;;;5037589;28;21105;-43
2023/07/31 10:43:47;;;;;;;22.80;21.80;;;;;;;;;;5031335;28;20469;-46
2023/07/31 10:46:14;;;;;;;21.50;20.60;;;;;;;;;;5040761;28;20511;-42
2023/07/31 10:48:42;;;;;;;21.50;20.70;;;;;;;;;;5042319;28;20435;-42
2023/07/31 10:51:11;;;;;;;22.93;21.80;;;;;;;;;;5045172;28;20459;-43
2023/07/31 10:53:40;;;;;;;23.00;21.80;;;;;;;;;;5035548;28;20973;-42
2023/07/31 10:56:12;;;;;;;22.73;21.47;;;;;;;;;;5038485;28;20493;-41
2023/07/31 10:58:40;;;;;;;23.30;21.87;;;;;;;;;;5037734;28;20435;-42
2023/07/31 11:01:07;;;;;;;21.23;20.33;;;;;;;;;;5049523;28;20431;-41
2023/07/31 11:03:42;;;;;;;21.97;21.03;;;;;;;;;;5032632;28;20565;-42
2023/07/31 11:06:10;;;;;;;21.17;20.17;;;;;;;;;;5041229;28;20431;-43
2023/07/31 11:08:42;;;;;;;21.20;20.10;;;;;;;;;;5044597;28;20987;-42
2023/07/31 11:11:12;;;;;;;20.70;19.90;;;;;;;;;;5045067;28;20435;-43
2023/07/31 11:13:43;;;;;;;20.80;19.90;;;;;;;;;;5029515;28;20436;-41
2023/07/31 11:16:12;;;;;;;21.20;20.20;;;;;;;;;;5036552;28;20435;-42
2023/07/31 11:18:40;;;;;;;21.30;20.40;;;;;;;;;;5042441;28;20427;-42
2023/07/31 11:21:08;;;;;;;21.27;20.37;;;;;;;;;;5038737;28;20513;-44
2023/07/31 11:23:38;;;;;;;21.17;20.27;;;;;;;;;;5034804;28;20474;-46
2023/07/31 11:26:06;;;;;;;22.47;21.40;;;;;;;;;;5027287;28;20431;-42
2023/07/31 11:28:35;;;;;;;21.57;20.57;;;;;;;;;;5041855;28;20458;-42
2023/07/31 11:31:03;;;;;;;21.13;20.13;;;;;;;;;;5038344;28;20428;-42
2023/07/31 11:33:31;;;;;;;20.30;19.50;;;;;;;;;;5030091;28;20432;-45
2023/07/31 11:35:59;;;;;;;21.47;20.43;;;;;;;;;;5035915;28;20556;-42
2023/07/31 11:38:28;;;;;;;22.27;21.37;;;;;;;;;;5041961;28;20901;-41
2023/07/31 11:40:56;;;;;;;22.53;21.53;;;;;;;;;;5039000;28;20920;-42
2023/07/31 11:43:24;;;;;;;22.23;21.33;;;;;;;;;;5032874;28;20456;-44
2023/07/31 11:45:54;;;;;;;21.70;20.80;;;;;;;;;;5039756;28;20466;-43
2023/07/31 11:48:22;;;;;;;21.53;20.60;;;;;;;;;;5019495;28;20432;-42
2023/07/31 11:50:51;;;;;;;21.13;20.33;;;;;;;;;;5039989;28;20932;-42
2023/07/31 11:53:21;;;;;;;21.33;20.40;;;;;;;;;;5032089;28;20428;-42
2023/07/31 11:55:49;;;;;;;21.67;20.87;;;;;;;;;;5037258;28;20488;-41
2023/07/31 11:58:17;;;;;;;21.60;20.70;;;;;;;;;;5032780;28;20457;-42
2023/07/31 12:00:45;;;;;;;21.87;21.03;;;;;;;;;;5039530;28;20439;-41
2023/07/31 12:03:14;;;;;;;21.20;20.40;;;;;;;;;;5031515;28;20515;-44
2023/07/31 12:05:42;;;;;;;20.60;19.87;;;;;;;;;;5037582;28;20471;-44
2023/07/31 12:08:10;;;;;;;21.67;20.87;;;;;;;;;;5035919;28;20442;-44
2023/07/31 12:10:38;;;;;;;21.70;20.90;;;;;;;;;;5048233;28;20865;-42
2023/07/31 12:13:06;;;;;;;21.20;20.40;;;;;;;;;;5035156;28;20456;-43
2023/07/31 12:15:34;;;;;;;21.50;20.70;;;;;;;;;;5038154;28;20486;-41
2023/07/31 12:18:06;;;;;;;20.20;19.50;;;;;;;;;;5032188;28;20801;-42
2023/07/31 12:20:35;;;;;;;20.80;19.90;;;;;;;;;;5041915;28;21003;-45
2023/07/31 12:23:03;;;;;;;20.60;19.80;;;;;;;;;;5029175;28;20517;-42
2023/07/31 12:25:34;;;;;;;20.50;19.80;;;;;;;;;;5028397;28;20555;-41
2023/07/31 12:28:05;;;;;;;21.00;20.10;;;;;;;;;;5032602;28;21012;-43
2023/07/31 12:30:34;;;;;;;20.87;20.10;;;;;;;;;;5039096;28;20432;-45
2023/07/31 12:33:05;;;;;;;21.00;20.20;;;;;;;;;;5044124;28;20431;-48
2023/07/31 12:35:38;;;;;;;20.27;19.57;;;;;;;;;;5035908;28;20458;-43
2023/07/31 12:38:05;;;;;;;20.70;19.90;;;;;;;;;;5032370;28;20426;-41
2023/07/31 12:40:33;;;;;;;21.03;20.33;;;;;;;;;;5039232;28;20452;-41
2023/07/31 12:43:02;;;;;;;20.30;19.60;;;;;;;;;;5035694;28;20431;-42
2023/07/31 12:45:29;;;;;;;20.40;19.60;;;;;;;;;;5035435;28;20475;-42
2023/07/31 12:47:57;;;;;;;20.53;19.80;;;;;;;;;;5036211;28;20466;-43
2023/07/31 12:50:25;;;;;;;21.17;20.17;;;;;;;;;;5035263;28;20489;-43
2023/07/31 12:52:54;;;;;;;20.70;19.90;;;;;;;;;;5033750;28;20497;-42
2023/07/31 12:55:22;;;;;;;21.33;20.33;;;;;;;;;;5030976;28;21060;-41
2023/07/31 12:57:50;;;;;;;21.77;20.97;;;;;;;;;;5034434;28;20841;-43
2023/07/31 13:00:18;;;;;;;21.80;21.00;;;;;;;;;;5035532;28;20439;-43
2023/07/31 13:02:45;;;;;;;20.87;19.90;;;;;;;;;;5035078;28;20940;-43
2023/07/31 13:05:13;;;;;;;20.70;19.80;;;;;;;;;;5026801;28;20472;-41
2023/07/31 13:07:41;;;;;;;20.03;19.23;;;;;;;;;;5036730;28;20514;-45
2023/07/31 13:10:10;;;;;;;21.33;20.53;;;;;;;;;;5037598;28;20438;-45
2023/07/31 13:12:38;;;;;;;21.10;20.13;;;;;;;;;;5042557;28;20427;-43
2023/07/31 13:15:07;;;;;;;20.90;20.10;;;;;;;;;;5036616;28;20465;-41
2023/07/31 13:17:35;;;;;;;20.30;19.27;;;;;;;;;;5041727;28;20431;-42
2023/07/31 13:20:03;;;;;;;20.93;20.13;;;;;;;;;;5040533;28;21005;-41
2023/07/31 13:22:30;;;;;;;21.00;20.20;;;;;;;;;;5029844;28;20439;-43
2023/07/31 13:24:58;;;;;;;21.20;20.40;;;;;;;;;;5037829;28;20478;-42
2023/07/31 13:27:27;;;;;;;20.63;19.83;;;;;;;;;;5040555;28;20518;-44
2023/07/31 13:29:54;;;;;;;21.90;21.00;;;;;;;;;;5039435;28;20438;-42
2023/07/31 13:32:22;;;;;;;20.77;19.97;;;;;;;;;;5042436;28;20936;-42
2023/07/31 13:34:50;;;;;;;21.90;21.10;;;;;;;;;;5036431;28;20464;-43
2023/07/31 13:37:17;;;;;;;22.07;21.07;;;;;;;;;;5037999;28;20423;-45
2023/07/31 13:39:45;;;;;;;22.60;21.60;;;;;;;;;;5037189;28;20801;-44
2023/07/31 13:42:13;;;;;;;20.87;19.97;;;;;;;;;;5036425;28;20431;-42
2023/07/31 13:44:42;;;;;;;20.10;19.37;;;;;;;;;;5037097;28;20881;-44
2023/07/31 13:47:10;;;;;;;20.57;19.80;;;;;;;;;;5034763;28;20440;-41
2023/07/31 13:49:38;;;;;;;21.13;20.33;;;;;;;;;;5040894;28;20449;-42
2023/07/31 13:52:06;;;;;;;21.23;20.03;;;;;;;;;;5042196;28;20435;-44
2023/07/31 13:54:34;;;;;;;22.20;21.20;;;;;;;;;;5038202;28;21031;-42
2023/07/31 13:57:01;;;;;;;22.10;21.20;;;;;;;;;;5038676;28;20424;-42
2023/07/31 13:59:29;;;;;;;21.17;20.37;;;;;;;;;;5042110;28;20527;-45
2023/07/31 14:01:58;;;;;;;21.60;20.60;;;;;;;;;;5042414;28;20434;-42
2023/07/31 14:04:25;;;;;;;21.30;20.30;;;;;;;;;;5036394;28;20468;-42
2023/07/31 14:06:52;;;;;;;21.23;20.33;;;;;;;;;;5033854;28;20464;-41
2023/07/31 14:09:19;;;;;;;20.97;20.27;;;;;;;;;;5041399;28;20862;-42
2023/07/31 14:11:47;;;;;;;20.90;20.10;;;;;;;;;;5037779;28;20494;-44
2023/07/31 14:14:14;;;;;;;20.20;19.50;;;;;;;;;;5036151;28;20467;-42
2023/07/31 14:16:42;;;;;;;21.90;21.10;;;;;;;;;;5037664;28;20918;-42
2023/07/31 14:19:11;;;;;;;20.20;19.40;;;;;;;;;;5039690;28;20427;-42
2023/07/31 14:21:39;;;;;;;21.30;20.20;;;;;;;;;;5040070;28;20486;-42
2023/07/31 14:24:07;;;;;;;20.27;19.47;;;;;;;;;;5026012;28;20496;-42